Historyczne dane pomiarowe

Dodano dane terminowe – wersja testowa.

Dane z okresu 1951-2019

Wersja bazy: 1.34 [2019-03-16, lista zmian], aktualizacja planowana na 2019-04-15

Dane meteo z obszaru Polski uzyskane na podstawie danych udostępnionych przez Instytut Meteorologii i Gospodarki Wodnej – Państwowy Instytut Badawczy.

 

Wybierz Datę:    

       

TemperaturaWilgotnośćWiatrCiśnienieOpadyŚniegCzas trwania zjawisk
 Stacja t tx tn tng RH VA  wxwx mslp ppp RRR   cm mm wxwxwxwxwxwxwx
1952-07-16 16.2 19.9 15.3 13.9 80.0- 7.3 2.7---- 0.0------------
1952-07-17 17.2 25.3 7.7 2.0 66.3- 1.0 1.3---- 0.0------------
1952-07-18 18.8 27.7 9.8 6.3 77.3- 4.3 2.0---- 4.3------------
1952-07-19 15.9 21.0 13.5 11.9 75.8- 5.7 2.0---- 0.0------------
1952-07-20 18.5 23.6 14.6 12.8 73.3- 6.7 1.7---- 0.9------------
1952-07-21 16.8 23.6 13.7 14.3 80.5- 4.3 1.0---- 0.0------------
1952-07-22 17.1 26.8 5.8 1.6 71.3- 0.3 1.0---- 0.0------------
1952-07-23 19.1 27.9 9.0 4.5 64.8- 2.7 2.7---- 0.0------------
1952-07-24 16.0 19.7 11.6 8.5 59.8- 4.3 2.3---- 0.0------------
1952-07-25 16.4 20.8 11.7 8.3 69.0- 6.0 3.0---- 1.5------------
1952-07-26 13.0 19.2 10.7 9.6 83.3- 3.3 1.3---- 0.0------------
1952-07-27 14.7 24.3 7.4 6.3 83.5- 5.3 1.3---- 0.0------------
1952-07-28 23.4 31.6 11.9 7.0 53.5- 3.0 3.3---- 0.1------------
1952-07-29 14.0 24.0 12.7 12.2 95.5- 7.3 1.7---- 2.4------------
1952-07-30 15.6 24.5 7.7 2.7 80.5- 4.0 1.7---- 0.0------------
1952-07-31 16.7 28.2 10.2 6.3 77.0- 3.0 1.0---- 0.0------------
1952-08-01 17.7 26.9 7.9 3.8 72.3- 0.7 1.3---- 0.0------------
1952-08-02 20.0 29.6 8.5 4.1 65.3- 0.0 0.7---- 0.0------------
1952-08-03 20.8 31.0 10.2 6.0 74.0- 2.3 1.7---- 9.1------------
1952-08-04 17.3 22.5 14.1 11.1 95.3- 5.7 1.3---- 1.6------------
1952-08-05 20.0 28.9 12.0 8.0 79.0- 0.0 0.7---- 0.0------------
1952-08-06 23.0 32.4 12.9 9.1 71.5- 1.0 1.3---- 0.0------------
1952-08-07 24.5 32.9 15.3 11.4 63.5- 4.7 2.7---- 0.0------------
1952-08-08 20.2 27.9 16.3 12.8 78.3- 3.7 0.7---- 0.0------------
1952-08-09 21.2 28.6 12.7 8.1 70.5- 1.3 0.7---- 0.0------------
1952-08-10 18.7 25.6 15.7 12.5 79.8- 5.0 2.7---- 4.5------------
1952-08-11 18.5 26.6 13.2 7.8 70.5- 1.7 2.3---- 0.0------------
1952-08-12 21.7 32.2 13.4 8.9 72.5- 1.7 1.3---- 0.0------------
1952-08-13 22.4 33.4 14.6 10.6 73.3- 2.0 2.7---- 2.2------------
1952-08-14 23.5 34.7 16.0 12.1 73.0- 1.0 1.0---- 0.0------------
101.1 ms

 

Źródłem pochodzenia danych jest Instytut Meteorologii i Gospodarki Wodnej – Państwowy Instytut Badawczy. Dane Instytutu Meteorologii i Gospodarki Wodnej – Państwowego Instytutu Badawczego zostały przetworzone.

Dane źródłowe można odnaleźć na stronie https://dane.imgw.pl